createdAt,value
2022-10-09T04:00:25.021Z,7.50
2022-10-09T04:02:54.666Z,7.50
2022-10-09T04:05:23.275Z,7.50
2022-10-09T04:07:51.271Z,7.60
2022-10-09T04:10:19.465Z,7.50
2022-10-09T04:12:48.129Z,7.50
2022-10-09T04:15:17.555Z,7.50
2022-10-09T04:17:45.601Z,7.50
2022-10-09T04:20:15.009Z,7.50
2022-10-09T04:22:43.005Z,7.50
2022-10-09T04:25:11.165Z,7.40
2022-10-09T04:27:39.326Z,7.30
2022-10-09T04:30:09.521Z,7.30
2022-10-09T04:32:37.561Z,7.20
2022-10-09T04:35:06.464Z,7.20
2022-10-09T04:37:36.700Z,7.20
2022-10-09T04:40:05.468Z,7.10
2022-10-09T04:42:33.443Z,7.10
2022-10-09T04:45:01.446Z,7.10
2022-10-09T04:47:29.475Z,7.00
2022-10-09T04:49:57.461Z,7.00
2022-10-09T04:52:25.476Z,7.00
2022-10-09T04:54:54.852Z,7.00
2022-10-09T04:57:22.992Z,7.00
2022-10-09T04:59:50.983Z,6.90
2022-10-09T05:02:19.235Z,6.90
2022-10-09T05:04:48.207Z,6.90
2022-10-09T05:07:16.230Z,6.90
2022-10-09T05:09:44.240Z,6.90
2022-10-09T05:12:13.559Z,6.80
2022-10-09T05:14:41.616Z,6.80
2022-10-09T05:17:14.181Z,6.80
2022-10-09T05:19:42.898Z,6.80
2022-10-09T05:22:10.943Z,6.80
2022-10-09T05:24:38.887Z,6.70
2022-10-09T05:27:07.525Z,6.80
2022-10-09T05:29:36.816Z,6.70
2022-10-09T05:32:04.919Z,6.70
2022-10-09T05:34:34.455Z,6.70
2022-10-09T05:37:02.765Z,6.70
2022-10-09T05:39:32.319Z,6.70
2022-10-09T05:42:00.296Z,6.70
2022-10-09T05:44:28.683Z,6.80
2022-10-09T05:46:58.138Z,6.80
2022-10-09T05:49:27.442Z,6.70
2022-10-09T05:51:55.913Z,6.80
2022-10-09T05:54:24.082Z,6.80
2022-10-09T05:56:52.039Z,6.80
2022-10-09T05:59:21.017Z,6.90
2022-10-09T06:01:51.542Z,7.00
2022-10-09T06:04:24.185Z,7.00
2022-10-09T06:06:53.037Z,7.10
2022-10-09T06:09:25.271Z,7.20
2022-10-09T06:11:55.505Z,7.30
2022-10-09T06:14:24.472Z,7.30
2022-10-09T06:16:53.184Z,7.30
2022-10-09T06:19:22.930Z,7.40
2022-10-09T06:21:51.880Z,7.40
2022-10-09T06:24:27.350Z,7.50
2022-10-09T06:26:57.139Z,7.60
2022-10-09T06:29:25.228Z,7.70
2022-10-09T06:31:53.386Z,7.70
2022-10-09T06:34:23.421Z,7.80
2022-10-09T06:36:51.501Z,7.80
2022-10-09T06:39:19.908Z,7.80
2022-10-09T06:41:47.837Z,7.90
2022-10-09T06:44:17.294Z,8.00
2022-10-09T06:46:49.213Z,8.10
2022-10-09T06:49:17.255Z,8.20
2022-10-09T06:51:46.680Z,8.30
2022-10-09T06:54:17.319Z,8.40
2022-10-09T06:56:45.516Z,8.50
2022-10-09T06:59:13.996Z,8.60
2022-10-09T07:01:42.066Z,8.70
2022-10-09T07:04:13.336Z,8.80
2022-10-09T07:06:43.991Z,8.90
2022-10-09T07:09:15.858Z,9.00
2022-10-09T07:11:46.483Z,9.10
2022-10-09T07:14:16.588Z,9.10
2022-10-09T07:16:48.279Z,9.20
2022-10-09T07:19:18.815Z,9.30
2022-10-09T07:21:50.929Z,9.40
2022-10-09T07:24:21.183Z,9.50
2022-10-09T07:26:50.113Z,9.60
2022-10-09T07:29:19.874Z,9.70
2022-10-09T07:31:49.734Z,9.80
2022-10-09T07:34:17.718Z,9.90
2022-10-09T07:36:46.196Z,9.90
2022-10-09T07:39:14.279Z,10.00
2022-10-09T07:41:44.084Z,10.10
2022-10-09T07:44:12.306Z,10.10
2022-10-09T07:46:40.385Z,10.20
2022-10-09T07:49:08.435Z,10.30
2022-10-09T07:51:36.481Z,10.40
2022-10-09T07:54:04.790Z,10.50
2022-10-09T07:56:36.145Z,10.60
2022-10-09T07:59:08.294Z,10.60
2022-10-09T08:01:40.734Z,10.70
2022-10-09T08:04:09.280Z,10.80
2022-10-09T08:06:37.556Z,11.00
2022-10-09T08:09:08.721Z,11.00
2022-10-09T08:11:40.420Z,11.10
2022-10-09T08:14:19.240Z,11.20
2022-10-09T08:16:48.020Z,11.30
2022-10-09T08:19:16.149Z,11.50
2022-10-09T08:21:44.157Z,11.50
2022-10-09T08:24:13.054Z,11.70
2022-10-09T08:26:41.071Z,11.70
2022-10-09T08:29:13.754Z,11.80
2022-10-09T08:31:41.800Z,11.90
2022-10-09T08:34:11.477Z,12.00
2022-10-09T08:36:39.782Z,12.00
2022-10-09T08:39:07.765Z,12.10
2022-10-09T08:41:48.085Z,12.20
2022-10-09T08:44:23.669Z,12.30
2022-10-09T08:47:04.698Z,12.30
2022-10-09T08:49:43.701Z,12.40
2022-10-09T08:52:25.876Z,12.40
2022-10-09T08:55:00.319Z,12.60
2022-10-09T08:57:33.536Z,12.70
2022-10-09T09:00:02.977Z,12.90
2022-10-09T09:02:48.131Z,13.00
2022-10-09T09:05:34.746Z,12.90
2022-10-09T09:08:19.997Z,13.20
2022-10-09T09:10:58.553Z,13.50
2022-10-09T09:13:48.001Z,13.70
2022-10-09T09:16:29.700Z,13.90
2022-10-09T09:19:15.611Z,14.10
2022-10-09T09:21:51.156Z,14.40
2022-10-09T09:24:22.311Z,14.60
2022-10-09T09:26:55.866Z,14.60
2022-10-09T09:29:26.149Z,14.80
2022-10-09T09:32:01.554Z,15.00
2022-10-09T09:34:39.985Z,15.20
2022-10-09T09:37:11.581Z,15.30
2022-10-09T09:42:30.394Z,15.80
2022-10-09T09:45:05.109Z,15.80
2022-10-09T09:47:44.045Z,16.00
2022-10-09T09:50:35.055Z,16.20
2022-10-09T09:53:07.344Z,16.50
2022-10-09T09:55:36.923Z,16.60
2022-10-09T09:58:08.977Z,16.60
2022-10-09T10:00:37.591Z,16.90
2022-10-09T10:03:14.537Z,17.10
2022-10-09T10:05:45.001Z,17.40
2022-10-09T10:08:23.707Z,17.70
2022-10-09T10:10:54.323Z,18.00
2022-10-09T10:13:31.546Z,18.30
2022-10-09T10:16:00.573Z,18.50
2022-10-09T10:18:37.325Z,18.70
2022-10-09T10:21:12.986Z,18.90
2022-10-09T10:23:44.741Z,19.00
2022-10-09T10:26:27.756Z,19.10
2022-10-09T10:29:02.873Z,19.30
2022-10-09T10:31:56.680Z,19.40
2022-10-09T10:34:31.649Z,19.50
2022-10-09T10:37:13.938Z,19.70
2022-10-09T10:39:49.932Z,19.60
2022-10-09T10:42:25.857Z,19.50
2022-10-09T10:45:04.829Z,19.70
2022-10-09T10:47:44.128Z,20.10
2022-10-09T10:50:17.600Z,20.50
2022-10-09T10:53:04.602Z,20.80
2022-10-09T10:55:53.186Z,21.10
2022-10-09T10:58:30.353Z,21.70
2022-10-09T11:01:15.503Z,22.10
2022-10-09T11:04:16.021Z,22.20
2022-10-09T11:06:56.081Z,22.50
2022-10-09T11:09:32.919Z,22.90
2022-10-09T11:12:19.669Z,23.00
2022-10-09T11:15:13.309Z,22.90
2022-10-09T11:17:52.697Z,22.40
2022-10-09T11:20:50.399Z,22.10
2022-10-09T11:23:33.026Z,22.30
2022-10-09T11:26:14.072Z,22.80
2022-10-09T11:28:48.653Z,23.10
2022-10-09T11:31:21.346Z,23.40
2022-10-09T11:33:55.483Z,22.90
2022-10-09T11:36:32.161Z,22.30
2022-10-09T11:39:06.222Z,22.00
2022-10-09T11:41:37.633Z,22.10
2022-10-09T11:44:36.678Z,22.00
2022-10-09T11:47:16.833Z,21.70
2022-10-09T11:50:07.897Z,21.40
2022-10-09T11:52:48.793Z,20.90
2022-10-09T11:55:21.645Z,21.30
2022-10-09T11:57:50.800Z,21.50
2022-10-09T12:00:32.186Z,21.50
2022-10-09T12:03:04.350Z,21.60
2022-10-09T12:05:43.502Z,22.30
2022-10-09T12:08:19.199Z,23.70
2022-10-09T12:10:56.156Z,25.20
2022-10-09T12:13:45.050Z,26.80
2022-10-09T12:16:42.118Z,27.70
2022-10-09T12:19:20.422Z,27.70
2022-10-09T12:22:04.136Z,27.80
2022-10-09T12:24:39.231Z,28.20
2022-10-09T12:27:17.629Z,28.10
2022-10-09T12:29:51.401Z,27.60
2022-10-09T12:32:31.745Z,28.10
2022-10-09T12:35:01.889Z,29.10
2022-10-09T12:37:36.316Z,29.80
2022-10-09T12:40:13.821Z,30.00
2022-10-09T12:42:45.463Z,29.90
2022-10-09T12:45:19.129Z,30.80
2022-10-09T12:47:47.966Z,31.70
2022-10-09T12:50:26.140Z,32.80
2022-10-09T12:52:57.336Z,33.50
2022-10-09T12:55:30.536Z,33.90
2022-10-09T12:58:04.247Z,34.40
2022-10-09T13:00:33.502Z,34.40
2022-10-09T13:03:01.643Z,34.10
2022-10-09T13:05:38.300Z,34.50
2022-10-09T13:08:07.593Z,34.80
2022-10-09T13:10:35.790Z,34.80
2022-10-09T13:13:05.167Z,35.60
2022-10-09T13:15:37.588Z,36.90
2022-10-09T13:18:22.499Z,37.70
2022-10-09T13:21:01.396Z,38.30
2022-10-09T13:23:33.056Z,37.40
2022-10-09T13:26:03.822Z,34.60
2022-10-09T13:28:33.471Z,32.70
2022-10-09T13:31:08.351Z,32.30
2022-10-09T13:33:36.605Z,32.50
2022-10-09T13:36:04.849Z,33.10
2022-10-09T13:38:34.915Z,34.50
2022-10-09T13:41:03.427Z,35.60
2022-10-09T13:43:33.839Z,36.90
2022-10-09T13:46:01.984Z,37.60
2022-10-09T13:48:31.186Z,38.50
2022-10-09T13:50:59.803Z,38.70
2022-10-09T13:53:28.356Z,38.40
2022-10-09T13:56:00.831Z,38.20
2022-10-09T13:58:29.637Z,37.90
2022-10-09T14:00:59.221Z,38.00
2022-10-09T14:03:27.443Z,38.40
2022-10-09T14:05:59.888Z,39.20
2022-10-09T14:08:27.956Z,39.70
2022-10-09T14:10:56.137Z,38.90
2022-10-09T14:13:24.105Z,38.80
2022-10-09T14:15:53.065Z,38.90
2022-10-09T14:18:22.675Z,39.10
2022-10-09T14:20:50.842Z,38.90
2022-10-09T14:23:18.860Z,38.90
2022-10-09T14:25:46.842Z,38.30
2022-10-09T14:28:14.865Z,37.70
2022-10-09T14:30:44.617Z,37.90
2022-10-09T14:33:13.426Z,37.70
2022-10-09T14:35:42.878Z,37.10
2022-10-09T14:38:10.888Z,36.40
2022-10-09T14:40:43.710Z,36.00
2022-10-09T14:43:12.322Z,35.50
2022-10-09T14:45:40.290Z,35.50
2022-10-09T14:48:08.198Z,35.40
2022-10-09T14:50:37.334Z,35.30
2022-10-09T14:53:06.732Z,34.20
2022-10-09T14:55:35.977Z,33.70
2022-10-09T14:58:04.880Z,33.90
2022-10-09T15:00:32.861Z,34.20
2022-10-09T15:03:00.815Z,33.30
2022-10-09T15:05:28.817Z,33.50
2022-10-09T15:07:56.699Z,33.70
2022-10-09T15:10:26.043Z,34.10
2022-10-09T15:12:53.985Z,33.90
2022-10-09T15:15:21.961Z,33.70
2022-10-09T15:17:50.311Z,33.10
2022-10-09T15:20:18.524Z,32.50
2022-10-09T15:22:46.489Z,32.10
2022-10-09T15:25:15.637Z,32.10
2022-10-09T15:27:45.997Z,32.00
2022-10-09T15:30:14.713Z,32.00
2022-10-09T15:32:42.636Z,31.90
2022-10-09T15:35:10.919Z,31.40
2022-10-09T15:37:38.846Z,30.60
2022-10-09T15:40:08.504Z,30.10
2022-10-09T15:42:37.157Z,29.00
2022-10-09T15:45:08.643Z,27.90
2022-10-09T15:47:50.476Z,26.70
2022-10-09T15:50:19.275Z,25.60
2022-10-09T15:52:47.592Z,24.70
2022-10-09T15:55:15.913Z,24.10
2022-10-09T15:57:43.952Z,23.60
2022-10-09T16:00:15.081Z,23.00
2022-10-09T16:02:43.059Z,22.40
2022-10-09T16:05:11.682Z,21.70
2022-10-09T16:07:39.646Z,21.10
2022-10-09T16:10:08.526Z,20.50
2022-10-09T16:12:36.554Z,19.80
2022-10-09T16:15:04.930Z,19.30
2022-10-09T16:17:34.212Z,18.80
2022-10-09T16:20:02.252Z,18.30
2022-10-09T16:22:30.227Z,18.00
2022-10-09T16:24:58.147Z,17.60
2022-10-09T16:27:26.118Z,17.20
2022-10-09T16:29:54.102Z,16.90
2022-10-09T16:32:22.092Z,16.60
2022-10-09T16:34:51.575Z,16.20
2022-10-09T16:37:19.607Z,15.90
2022-10-09T16:39:49.224Z,15.70
2022-10-09T16:42:17.692Z,15.40
2022-10-09T16:44:45.655Z,15.20
2022-10-09T16:47:14.063Z,15.00
2022-10-09T16:49:42.037Z,14.70
2022-10-09T16:52:11.344Z,14.60
2022-10-09T16:54:39.847Z,14.50
2022-10-09T16:57:07.821Z,14.30
2022-10-09T16:59:36.192Z,14.10
2022-10-09T17:02:04.248Z,14.00
2022-10-09T17:04:32.745Z,13.80
2022-10-09T17:07:00.735Z,13.70
2022-10-09T17:09:30.545Z,13.60
2022-10-09T17:11:58.470Z,13.50
2022-10-09T17:14:26.540Z,13.30
2022-10-09T17:16:54.466Z,13.20
2022-10-09T17:19:22.525Z,13.10
2022-10-09T17:21:50.564Z,13.10
2022-10-09T17:24:18.713Z,13.00
2022-10-09T17:26:48.069Z,12.90
2022-10-09T17:29:17.157Z,12.80
2022-10-09T17:31:45.404Z,12.70
2022-10-09T17:34:14.431Z,12.70
2022-10-09T17:36:45.552Z,12.60
2022-10-09T17:39:16.428Z,12.50
2022-10-09T17:41:49.073Z,12.50
2022-10-09T17:44:17.652Z,12.40
2022-10-09T17:46:45.681Z,12.30
2022-10-09T17:49:14.662Z,12.20
2022-10-09T17:51:42.741Z,12.20
2022-10-09T17:54:15.207Z,12.20
2022-10-09T17:56:43.533Z,12.10
2022-10-09T17:59:13.760Z,12.00
2022-10-09T18:01:41.975Z,12.00
2022-10-09T18:04:15.440Z,11.90
2022-10-09T18:06:44.053Z,11.90
2022-10-09T18:09:12.531Z,11.80
2022-10-09T18:11:40.630Z,11.70
2022-10-09T18:14:09.665Z,11.70
2022-10-09T18:16:40.286Z,11.60
2022-10-09T18:19:12.310Z,11.60
2022-10-09T18:21:41.840Z,11.50
2022-10-09T18:24:10.276Z,11.50
2022-10-09T18:26:38.240Z,11.40
2022-10-09T18:29:06.674Z,11.30
2022-10-09T18:31:35.308Z,11.30
2022-10-09T18:34:04.833Z,11.20
2022-10-09T18:36:34.490Z,11.20
2022-10-09T18:39:06.802Z,11.10
2022-10-09T18:41:35.662Z,11.00
2022-10-09T18:44:04.717Z,10.90
2022-10-09T18:46:37.432Z,10.90
2022-10-09T18:49:11.741Z,10.80
2022-10-09T18:51:42.941Z,10.80
2022-10-09T18:54:15.691Z,10.80
2022-10-09T18:56:46.296Z,10.70
2022-10-09T18:59:19.048Z,10.60
2022-10-09T19:01:47.269Z,10.60
2022-10-09T19:04:16.672Z,10.50
2022-10-09T19:06:44.656Z,10.50
2022-10-09T19:09:12.965Z,10.50
2022-10-09T19:11:41.147Z,10.40
2022-10-09T19:14:09.152Z,10.40
2022-10-09T19:16:37.323Z,10.40
2022-10-09T19:19:05.654Z,10.30
2022-10-09T19:21:36.247Z,10.30
2022-10-09T19:24:06.186Z,10.30
2022-10-09T19:26:35.209Z,10.20
2022-10-09T19:29:03.409Z,10.20
2022-10-09T19:31:32.248Z,10.20
2022-10-09T19:34:01.419Z,10.20
2022-10-09T19:36:33.052Z,10.20
2022-10-09T19:39:03.133Z,10.10
2022-10-09T19:41:31.280Z,10.10
2022-10-09T19:43:59.919Z,10.00
2022-10-09T19:46:28.616Z,10.00
2022-10-09T19:48:56.696Z,10.00
2022-10-09T19:51:26.996Z,9.90
2022-10-09T19:53:55.189Z,9.90
2022-10-09T19:56:27.970Z,9.80
2022-10-09T19:58:58.359Z,9.80
2022-10-09T20:01:28.195Z,9.80
2022-10-09T20:03:57.517Z,9.70
2022-10-09T20:06:26.285Z,9.70
2022-10-09T20:08:55.084Z,9.60
2022-10-09T20:11:26.935Z,9.60
2022-10-09T20:13:56.615Z,9.60
2022-10-09T20:16:27.918Z,9.50
2022-10-09T20:18:56.496Z,9.50
2022-10-09T20:21:24.600Z,9.50
2022-10-09T20:23:53.512Z,9.40
2022-10-09T20:26:24.837Z,9.40
2022-10-09T20:28:54.492Z,9.40
2022-10-09T20:31:25.917Z,9.40
2022-10-09T20:33:55.697Z,9.40
2022-10-09T20:36:27.583Z,9.40
2022-10-09T20:38:57.563Z,9.30
2022-10-09T20:41:28.595Z,9.30
2022-10-09T20:43:59.551Z,9.30
2022-10-09T20:46:30.900Z,9.30
2022-10-09T20:48:59.556Z,9.30
2022-10-09T20:51:28.141Z,9.30
2022-10-09T20:53:59.479Z,9.30
2022-10-09T20:56:32.339Z,9.20
2022-10-09T20:59:01.586Z,9.20
